createdAt,value
2017-09-13T00:01:42.792Z,95533.20
2017-09-13T00:04:09.815Z,95535.45
2017-09-13T00:06:36.103Z,95523.94
2017-09-13T00:09:03.114Z,95522.24
2017-09-13T00:11:29.533Z,95516.77
2017-09-13T00:13:55.766Z,95523.77
2017-09-13T00:16:22.004Z,95514.97
2017-09-13T00:18:48.364Z,95515.16
2017-09-13T00:21:14.571Z,95508.41
2017-09-13T00:23:40.789Z,95511.48
2017-09-13T00:26:07.113Z,95513.98
2017-09-13T00:28:34.193Z,95515.41
2017-09-13T00:31:00.413Z,95509.73
2017-09-13T00:33:26.697Z,95511.17
2017-09-13T00:35:53.004Z,95522.06
2017-09-13T00:38:19.214Z,95516.87
2017-09-13T00:40:46.236Z,95523.22
2017-09-13T00:43:12.552Z,95511.05
2017-09-13T00:45:38.865Z,95512.40
2017-09-13T00:48:05.174Z,95510.81
2017-09-13T00:50:32.421Z,95506.44
2017-09-13T00:52:59.429Z,95501.34
2017-09-13T00:55:25.662Z,95505.88
2017-09-13T00:57:51.874Z,95507.07
2017-09-13T01:00:18.322Z,95507.81
2017-09-13T01:02:44.612Z,95507.05
2017-09-13T01:05:11.602Z,95510.64
2017-09-13T01:07:37.927Z,95508.95
2017-09-13T01:10:04.165Z,95523.80
2017-09-13T01:12:30.429Z,95518.62
2017-09-13T01:14:56.625Z,95513.95
2017-09-13T01:17:22.922Z,95514.66
2017-09-13T01:19:49.124Z,95510.58
2017-09-13T01:22:15.335Z,95506.55
2017-09-13T01:24:41.685Z,95507.52
2017-09-13T01:27:07.955Z,95498.23
2017-09-13T01:29:34.242Z,95495.05
2017-09-13T01:32:00.571Z,95497.15
2017-09-13T01:34:27.566Z,95496.02
2017-09-13T01:36:53.917Z,95488.58
2017-09-13T01:39:20.229Z,95490.04
2017-09-13T01:41:46.445Z,95492.96
2017-09-13T01:44:13.408Z,95490.30
2017-09-13T01:46:39.814Z,95485.72
2017-09-13T01:49:06.087Z,95479.36
2017-09-13T01:51:32.307Z,95482.93
2017-09-13T01:53:58.578Z,95469.23
2017-09-13T01:56:24.924Z,95473.33
2017-09-13T01:58:51.112Z,95466.63
2017-09-13T02:01:17.350Z,95459.59
2017-09-13T02:03:43.582Z,95459.05
2017-09-13T02:06:09.808Z,95461.73
2017-09-13T02:08:36.073Z,95452.05
2017-09-13T02:11:02.309Z,95455.69
2017-09-13T02:13:28.643Z,95451.84
2017-09-13T02:15:54.946Z,95445.39
2017-09-13T02:18:21.176Z,95441.41
2017-09-13T02:20:47.421Z,95432.77
2017-09-13T02:23:13.777Z,95430.16
2017-09-13T02:25:41.018Z,95429.80
2017-09-13T02:28:07.234Z,95425.55
2017-09-13T02:30:34.238Z,95420.73
2017-09-13T02:33:00.594Z,95422.91
2017-09-13T02:35:26.874Z,95418.45
2017-09-13T02:37:53.098Z,95419.91
2017-09-13T02:40:19.285Z,95418.91
2017-09-13T02:42:45.613Z,95408.66
2017-09-13T02:45:11.816Z,95413.66
2017-09-13T02:47:38.098Z,95407.13
2017-09-13T02:50:04.443Z,95399.16
2017-09-13T02:52:31.434Z,95393.69
2017-09-13T02:54:57.730Z,95392.39
2017-09-13T02:57:23.997Z,95383.84
2017-09-13T02:59:50.244Z,95385.06
2017-09-13T03:02:16.598Z,95388.48
2017-09-13T03:04:42.837Z,95391.57
2017-09-13T03:07:09.017Z,95388.41
2017-09-13T03:09:36.145Z,95384.88
2017-09-13T03:12:02.433Z,95389.33
2017-09-13T03:14:28.681Z,95388.68
2017-09-13T03:16:54.960Z,95384.73
2017-09-13T03:19:21.142Z,95376.00
2017-09-13T03:21:47.497Z,95375.70
2017-09-13T03:24:13.853Z,95377.47
2017-09-13T03:26:40.145Z,95369.91
2017-09-13T03:29:06.398Z,95373.48
2017-09-13T03:31:32.623Z,95367.72
2017-09-13T03:33:58.946Z,95360.75
2017-09-13T03:36:28.925Z,95356.58
2017-09-13T03:38:55.189Z,95354.77
2017-09-13T03:41:22.118Z,95351.84
2017-09-13T03:43:48.405Z,95358.72
2017-09-13T03:46:14.613Z,95349.98
2017-09-13T03:48:41.593Z,95343.78
2017-09-13T03:51:07.838Z,95347.30
2017-09-13T03:53:34.033Z,95341.83
2017-09-13T03:56:00.299Z,95331.86
2017-09-13T03:58:26.514Z,95328.78
2017-09-13T04:00:52.964Z,95329.20
2017-09-13T04:03:19.207Z,95329.22
2017-09-13T04:05:45.417Z,95326.03
2017-09-13T04:08:11.897Z,95323.94
2017-09-13T04:10:38.144Z,95315.20
2017-09-13T04:13:04.434Z,95316.50
2017-09-13T04:15:30.723Z,95302.05
2017-09-13T04:17:57.008Z,95292.14
2017-09-13T04:20:23.242Z,95290.76
2017-09-13T04:22:49.494Z,95285.98
2017-09-13T04:25:15.848Z,95286.44
2017-09-13T04:27:42.114Z,95284.73
2017-09-13T04:30:09.093Z,95284.59
2017-09-13T04:32:35.352Z,95285.91
2017-09-13T04:35:01.620Z,95288.78
2017-09-13T04:37:28.634Z,95293.05
2017-09-13T04:39:54.865Z,95277.27
2017-09-13T04:42:21.113Z,95276.88
2017-09-13T04:44:47.366Z,95275.87
2017-09-13T04:47:13.812Z,95273.92
2017-09-13T04:49:40.105Z,95280.45
2017-09-13T04:52:06.394Z,95275.48
2017-09-13T04:54:32.726Z,95280.47
2017-09-13T04:56:58.997Z,95271.81
2017-09-13T04:59:25.934Z,95276.78
2017-09-13T05:01:52.995Z,95273.67
2017-09-13T05:04:19.244Z,95273.14
2017-09-13T05:06:45.505Z,95273.77
2017-09-13T05:09:11.878Z,95266.22
2017-09-13T05:11:38.245Z,95277.42
2017-09-13T05:14:04.572Z,95273.33
2017-09-13T05:16:31.561Z,95273.67
2017-09-13T05:18:57.817Z,95268.09
2017-09-13T05:21:26.090Z,95274.73
2017-09-13T05:23:52.409Z,95276.77
2017-09-13T05:26:18.645Z,95271.58
2017-09-13T05:28:44.953Z,95270.16
2017-09-13T05:31:11.353Z,95266.66
2017-09-13T05:33:37.682Z,95264.72
2017-09-13T05:36:04.012Z,95256.35
2017-09-13T05:38:30.757Z,95263.84
2017-09-13T05:40:56.987Z,95267.33
2017-09-13T05:43:23.168Z,95267.66
2017-09-13T05:45:50.489Z,95260.80
2017-09-13T05:48:16.801Z,95254.55
2017-09-13T05:50:43.018Z,95255.67
2017-09-13T05:53:09.249Z,95258.30
2017-09-13T05:55:35.520Z,95253.81
2017-09-13T05:58:01.760Z,95252.66
2017-09-13T06:00:28.110Z,95249.61
2017-09-13T06:02:54.477Z,95248.76
2017-09-13T06:05:20.757Z,95256.59
2017-09-13T06:07:46.981Z,95245.11
2017-09-13T06:10:13.213Z,95233.95
2017-09-13T06:12:39.454Z,95231.93
2017-09-13T06:15:05.713Z,95236.81
2017-09-13T06:17:31.998Z,95221.00
2017-09-13T06:19:59.079Z,95220.67
2017-09-13T06:22:27.403Z,95227.20
2017-09-13T06:24:53.727Z,95217.14
2017-09-13T06:27:20.044Z,95214.37
2017-09-13T06:29:46.245Z,95209.20
2017-09-13T06:32:12.542Z,95208.27
2017-09-13T06:34:38.862Z,95202.70
2017-09-13T06:37:05.188Z,95200.29
2017-09-13T06:39:31.609Z,95198.79
2017-09-13T06:41:57.825Z,95202.49
2017-09-13T06:44:24.044Z,95203.36
2017-09-13T06:46:51.003Z,95191.19
2017-09-13T06:49:17.974Z,95184.78
2017-09-13T06:51:44.256Z,95187.23
2017-09-13T06:54:10.596Z,95183.46
2017-09-13T06:56:37.036Z,95184.21
2017-09-13T06:59:03.326Z,95182.67
2017-09-13T07:01:30.047Z,95178.17
2017-09-13T07:03:56.337Z,95175.33
2017-09-13T07:06:22.870Z,95174.72
2017-09-13T07:08:49.214Z,95172.46
2017-09-13T07:11:15.418Z,95170.95
2017-09-13T07:13:41.666Z,95153.72
2017-09-13T07:16:08.018Z,95149.75
2017-09-13T07:18:34.321Z,95151.93
2017-09-13T07:21:00.553Z,95154.69
2017-09-13T07:23:26.779Z,95144.28
2017-09-13T07:25:53.081Z,95139.33
2017-09-13T07:28:20.272Z,95141.34
2017-09-13T07:30:47.483Z,95145.77
2017-09-13T07:33:13.773Z,95150.52
2017-09-13T07:35:40.152Z,95145.02
2017-09-13T07:38:06.333Z,95140.42
2017-09-13T07:40:32.585Z,95137.99
2017-09-13T07:42:58.848Z,95132.11
2017-09-13T07:45:25.146Z,95127.50
2017-09-13T07:47:51.399Z,95122.33
2017-09-13T07:50:17.633Z,95120.14
2017-09-13T07:52:43.858Z,95122.14
2017-09-13T07:55:10.133Z,95128.84
2017-09-13T07:57:37.109Z,95123.28
2017-09-13T08:00:04.066Z,95100.36
2017-09-13T08:02:31.050Z,95119.39
2017-09-13T08:04:57.436Z,95128.44
2017-09-13T08:07:23.736Z,95129.20
2017-09-13T08:09:49.929Z,95121.84
2017-09-13T08:12:16.980Z,95118.92
2017-09-13T08:14:43.982Z,95125.80
2017-09-13T08:17:10.193Z,95119.94
2017-09-13T08:19:36.464Z,95118.44
2017-09-13T08:22:03.637Z,95113.72
2017-09-13T08:24:29.916Z,95113.94
2017-09-13T08:26:56.178Z,95106.05
2017-09-13T08:29:22.415Z,95091.34
2017-09-13T08:31:48.643Z,95091.74
2017-09-13T08:34:14.861Z,95094.45
2017-09-13T08:36:41.124Z,95088.92
2017-09-13T08:39:07.420Z,95091.70
2017-09-13T08:41:33.683Z,95099.91
2017-09-13T08:43:59.886Z,95095.41
2017-09-13T08:46:26.147Z,95089.55
2017-09-13T08:48:52.342Z,95086.22
2017-09-13T08:51:23.220Z,95092.34
2017-09-13T08:53:53.836Z,95092.31
2017-09-13T08:56:25.409Z,95083.51
2017-09-13T08:58:56.932Z,95077.39
2017-09-13T09:01:27.233Z,95071.02
2017-09-13T09:03:59.268Z,95069.06
2017-09-13T09:06:30.600Z,95064.21
2017-09-13T09:09:02.775Z,95068.50
2017-09-13T09:11:33.462Z,95058.42
2017-09-13T09:14:03.777Z,95059.70
2017-09-13T09:16:35.097Z,95060.08
2017-09-13T09:19:06.661Z,95050.72
2017-09-13T09:21:38.145Z,95053.96
2017-09-13T09:24:08.075Z,95056.11
2017-09-13T09:26:39.910Z,95054.00
2017-09-13T09:29:11.696Z,95056.13
2017-09-13T09:31:43.466Z,95051.84
2017-09-13T09:34:13.911Z,95043.00
2017-09-13T09:36:44.118Z,95038.63
2017-09-13T09:39:14.350Z,95025.91
2017-09-13T09:41:46.372Z,95025.31
2017-09-13T09:44:16.107Z,95026.94
2017-09-13T09:46:47.330Z,95032.73
2017-09-13T09:49:17.654Z,95035.83
2017-09-13T09:51:48.255Z,95033.38
2017-09-13T09:54:18.285Z,95038.39
2017-09-13T09:56:50.388Z,95031.50
2017-09-13T09:59:20.707Z,95033.81
2017-09-13T10:01:50.768Z,95031.83
2017-09-13T10:04:21.952Z,95041.38
2017-09-13T10:06:53.247Z,95040.98
2017-09-13T10:09:24.634Z,95058.06
2017-09-13T10:11:56.422Z,95055.82
2017-09-13T10:14:26.903Z,95061.17
2017-09-13T10:16:58.244Z,95067.13
2017-09-13T10:19:28.893Z,95059.59
2017-09-13T10:22:00.444Z,95056.43
2017-09-13T10:24:31.603Z,95054.75
2017-09-13T10:27:03.696Z,95044.90
2017-09-13T10:29:36.006Z,95034.17
2017-09-13T10:32:06.705Z,95042.42
2017-09-13T10:34:37.504Z,95037.17
2017-09-13T10:37:09.344Z,95035.27
2017-09-13T10:39:44.167Z,95029.56
2017-09-13T10:42:15.426Z,95030.93
2017-09-13T10:44:46.130Z,95024.82
2017-09-13T10:47:16.897Z,95027.02
2017-09-13T10:49:47.474Z,95031.21
2017-09-13T10:52:19.455Z,95023.95
2017-09-13T10:54:50.135Z,95024.00
2017-09-13T10:57:20.617Z,95035.43
2017-09-13T10:59:50.439Z,95037.28
2017-09-13T11:02:21.264Z,95026.33
2017-09-13T11:04:52.100Z,95041.77
2017-09-13T11:07:20.490Z,95030.59
2017-09-13T11:09:52.176Z,95042.57
2017-09-13T11:12:24.477Z,95044.84
2017-09-13T11:14:55.750Z,95041.34
2017-09-13T11:17:26.836Z,95049.23
2017-09-13T11:19:56.951Z,95055.09
2017-09-13T11:22:27.439Z,95044.30
2017-09-13T11:24:57.902Z,95030.52
2017-09-13T11:27:28.929Z,95028.62
2017-09-13T11:30:00.180Z,95038.83
2017-09-13T11:32:31.704Z,95030.83
2017-09-13T11:35:03.361Z,95032.64
2017-09-13T11:37:34.568Z,95011.50
2017-09-13T11:40:05.183Z,95014.14
2017-09-13T11:42:38.528Z,95004.41
2017-09-13T11:45:08.918Z,94998.11
2017-09-13T11:47:39.513Z,95007.27
2017-09-13T11:50:09.866Z,95011.12
2017-09-13T11:52:41.654Z,94995.28
2017-09-13T11:55:13.167Z,94993.16
2017-09-13T11:57:43.988Z,94997.20
2017-09-13T12:00:14.411Z,95016.72
2017-09-13T12:02:45.725Z,95002.98
2017-09-13T12:05:16.956Z,95016.06
2017-09-13T12:07:49.664Z,95004.22
2017-09-13T12:10:19.877Z,95006.11
2017-09-13T12:12:50.863Z,95015.21
2017-09-13T12:15:22.766Z,95019.36
2017-09-13T12:17:54.427Z,95031.69
2017-09-13T12:20:25.484Z,95034.77
2017-09-13T12:22:56.644Z,95031.24
2017-09-13T12:25:27.016Z,95010.31
2017-09-13T12:27:58.697Z,95013.72
2017-09-13T12:30:29.418Z,95021.88
2017-09-13T12:33:00.742Z,95023.64
2017-09-13T12:35:31.066Z,95037.19
2017-09-13T12:38:02.590Z,95022.30
2017-09-13T12:40:32.608Z,95034.98
2017-09-13T12:43:05.722Z,95049.36
2017-09-13T12:45:39.067Z,95041.26
2017-09-13T12:48:10.356Z,95066.42
2017-09-13T12:50:40.955Z,95050.69
2017-09-13T12:53:12.434Z,95064.36
2017-09-13T12:55:38.670Z,95058.77
2017-09-13T12:58:04.846Z,95055.23
2017-09-13T13:00:31.206Z,95061.84
2017-09-13T13:02:58.189Z,95067.75
2017-09-13T13:05:24.440Z,95067.12
2017-09-13T13:07:50.702Z,95071.75
2017-09-13T13:10:16.914Z,95076.17
2017-09-13T13:12:43.142Z,95061.72
2017-09-13T13:15:09.390Z,95054.59
2017-09-13T13:17:35.609Z,95071.15
2017-09-13T13:20:01.824Z,95084.34
2017-09-13T13:22:28.085Z,95073.94
2017-09-13T13:24:54.318Z,95076.59
2017-09-13T13:27:20.871Z,95065.16
2017-09-13T13:29:47.077Z,95077.65
2017-09-13T13:32:13.331Z,95069.87
2017-09-13T13:34:39.559Z,95071.02
2017-09-13T13:37:05.790Z,95062.09
2017-09-13T13:39:31.993Z,95059.20
2017-09-13T13:41:58.237Z,95067.47
2017-09-13T13:44:25.226Z,95059.34
2017-09-13T13:46:51.459Z,95067.89
2017-09-13T13:49:17.701Z,95061.89
2017-09-13T13:51:43.923Z,95074.52
2017-09-13T13:54:10.141Z,95077.29
2017-09-13T13:56:36.421Z,95064.28
2017-09-13T13:59:02.756Z,95060.98
2017-09-13T14:01:29.145Z,95048.16
2017-09-13T14:03:55.403Z,95050.59
2017-09-13T14:06:21.653Z,95034.91
2017-09-13T14:08:47.890Z,95049.06
2017-09-13T14:11:14.199Z,95042.78
2017-09-13T14:13:40.502Z,95048.28
2017-09-13T14:16:07.687Z,95050.62
2017-09-13T14:18:33.921Z,95052.63
2017-09-13T14:21:00.182Z,95058.59
2017-09-13T14:23:26.381Z,95068.38
2017-09-13T14:25:52.767Z,95045.73
2017-09-13T14:28:19.106Z,95081.72
2017-09-13T14:30:45.426Z,95055.84
2017-09-13T14:33:11.676Z,95062.39
2017-09-13T14:35:38.005Z,95064.70
2017-09-13T14:38:04.342Z,95077.97
2017-09-13T14:40:30.566Z,95074.52
2017-09-13T14:42:56.788Z,95057.27
2017-09-13T14:45:25.066Z,95055.41
2017-09-13T14:47:51.322Z,95062.03
2017-09-13T14:50:17.650Z,95055.48
2017-09-13T14:52:43.841Z,95065.77
2017-09-13T14:55:10.835Z,95044.97
2017-09-13T14:57:37.423Z,95040.38
2017-09-13T15:00:03.719Z,95042.75
2017-09-13T15:02:29.947Z,95050.78
2017-09-13T15:04:56.202Z,95050.50
2017-09-13T15:07:22.498Z,95048.98
2017-09-13T15:09:48.899Z,95051.03
2017-09-13T15:12:15.871Z,95052.63
2017-09-13T15:14:42.846Z,95043.09
2017-09-13T15:17:09.149Z,95055.91
2017-09-13T15:19:36.148Z,95048.22
2017-09-13T15:22:02.397Z,95062.52
2017-09-13T15:24:28.751Z,95050.12
2017-09-13T15:26:55.105Z,95065.38
2017-09-13T15:29:22.127Z,95039.63
2017-09-13T15:31:48.488Z,95038.94
2017-09-13T15:34:16.525Z,95042.34
2017-09-13T15:36:42.738Z,95025.58
2017-09-13T15:39:09.087Z,95033.16
2017-09-13T15:41:35.313Z,95028.52
2017-09-13T15:44:01.545Z,95022.19
2017-09-13T15:46:27.742Z,95023.62
2017-09-13T15:48:54.764Z,95015.52
2017-09-13T15:51:21.094Z,95017.37
2017-09-13T15:53:47.378Z,95012.23
2017-09-13T15:56:14.317Z,95013.59
2017-09-13T15:58:41.334Z,95015.57
2017-09-13T16:01:07.643Z,95012.12
2017-09-13T16:03:34.378Z,94990.80
2017-09-13T16:06:00.619Z,94991.80
2017-09-13T16:08:26.886Z,94994.98
2017-09-13T16:10:53.078Z,94991.14
2017-09-13T16:13:19.554Z,94982.32
2017-09-13T16:15:45.841Z,94982.97
2017-09-13T16:18:12.105Z,94977.31
2017-09-13T16:20:38.400Z,94986.55
2017-09-13T16:23:05.416Z,94987.28
2017-09-13T16:25:31.621Z,94979.43
2017-09-13T16:27:57.923Z,94961.94
2017-09-13T16:30:25.144Z,94977.00
2017-09-13T16:32:51.478Z,94978.87
2017-09-13T16:35:17.701Z,94964.69
2017-09-13T16:37:43.938Z,94957.16
2017-09-13T16:40:10.308Z,94960.88
2017-09-13T16:42:36.594Z,94939.02
2017-09-13T16:45:02.910Z,94971.91
2017-09-13T16:47:29.203Z,94968.72
2017-09-13T16:49:55.621Z,94961.55
2017-09-13T16:52:21.901Z,94978.20
2017-09-13T16:54:49.142Z,94977.75
2017-09-13T16:57:15.668Z,94954.73
2017-09-13T16:59:42.020Z,94951.93
2017-09-13T17:02:08.257Z,94943.72
2017-09-13T17:04:35.222Z,94938.83
2017-09-13T17:07:01.499Z,94945.13
2017-09-13T17:09:27.710Z,94938.50
2017-09-13T17:11:53.981Z,94963.06
2017-09-13T17:14:20.216Z,94936.09
2017-09-13T17:16:46.505Z,94946.89
2017-09-13T17:19:12.949Z,94928.29
2017-09-13T17:21:39.910Z,94918.50
2017-09-13T17:24:06.164Z,94922.45
2017-09-13T17:26:32.443Z,94943.98
2017-09-13T17:28:58.802Z,94927.34
2017-09-13T17:31:25.088Z,94925.19
2017-09-13T17:33:51.699Z,94925.19
2017-09-13T17:36:17.977Z,94928.98
2017-09-13T17:38:44.385Z,94918.28
2017-09-13T17:41:10.667Z,94926.77
2017-09-13T17:43:36.985Z,94922.49
2017-09-13T17:46:03.290Z,94912.22
2017-09-13T17:48:35.359Z,94924.19
2017-09-13T17:51:02.051Z,94923.86
2017-09-13T17:53:28.382Z,94921.17
2017-09-13T17:55:54.706Z,94915.80
2017-09-13T17:58:20.949Z,94917.02
2017-09-13T18:00:47.281Z,94909.33
2017-09-13T18:03:13.798Z,94911.42
2017-09-13T18:05:45.367Z,94904.47
2017-09-13T18:08:15.564Z,94907.21
2017-09-13T18:10:41.846Z,94907.81
2017-09-13T18:13:08.159Z,94905.30
2017-09-13T18:15:34.378Z,94903.44
2017-09-13T18:18:00.635Z,94909.70
2017-09-13T18:20:26.870Z,94913.55
2017-09-13T18:22:53.074Z,94917.55
2017-09-13T18:25:19.342Z,94918.98
2017-09-13T18:27:45.565Z,94913.23
2017-09-13T18:30:11.822Z,94914.23
2017-09-13T18:32:38.149Z,94921.08
2017-09-13T18:35:04.353Z,94920.30
2017-09-13T18:37:30.591Z,94916.91
2017-09-13T18:39:56.860Z,94912.91
2017-09-13T18:42:23.190Z,94923.37
2017-09-13T18:44:49.413Z,94931.86
2017-09-13T18:47:15.753Z,94935.44
2017-09-13T18:49:42.094Z,94930.80
2017-09-13T18:52:09.331Z,94928.92
2017-09-13T18:54:35.528Z,94931.70
2017-09-13T18:57:02.488Z,94927.23
2017-09-13T18:59:29.485Z,94935.20
2017-09-13T19:01:55.815Z,94928.98
2017-09-13T19:04:22.034Z,94931.11
2017-09-13T19:06:48.274Z,94927.00
2017-09-13T19:09:14.547Z,94916.54
2017-09-13T19:11:40.874Z,94920.17
2017-09-13T19:14:07.273Z,94911.85
2017-09-13T19:16:33.562Z,94917.03
2017-09-13T19:19:00.174Z,94914.61
2017-09-13T19:21:26.482Z,94916.61
2017-09-13T19:23:52.766Z,94918.28
2017-09-13T19:26:19.258Z,94920.76
2017-09-13T19:28:45.466Z,94912.49
2017-09-13T19:31:11.814Z,94906.92
2017-09-13T19:33:38.082Z,94906.29
2017-09-13T19:36:04.330Z,94898.91
2017-09-13T19:38:30.577Z,94897.97
2017-09-13T19:40:56.923Z,94898.17
2017-09-13T19:43:23.242Z,94891.64
2017-09-13T19:45:49.433Z,94900.42
2017-09-13T19:48:15.861Z,94895.15
2017-09-13T19:50:43.024Z,94897.31
2017-09-13T19:53:09.339Z,94893.78
2017-09-13T19:55:36.337Z,94892.46
2017-09-13T19:58:02.662Z,94892.09
2017-09-13T20:00:28.926Z,94890.30
2017-09-13T20:02:55.175Z,94889.86
2017-09-13T20:05:21.900Z,94896.06
2017-09-13T20:07:48.124Z,94878.64
2017-09-13T20:10:14.615Z,94894.77
2017-09-13T20:12:42.654Z,94898.14
2017-09-13T20:15:08.906Z,94880.05
2017-09-13T20:17:35.229Z,94881.19
2017-09-13T20:20:01.466Z,94881.38
2017-09-13T20:22:27.654Z,94884.27
2017-09-13T20:24:54.245Z,94882.64
2017-09-13T20:27:20.568Z,94881.05
2017-09-13T20:29:46.807Z,94876.46
2017-09-13T20:32:14.078Z,94883.40
2017-09-13T20:34:40.282Z,94888.66
2017-09-13T20:37:07.589Z,94878.22
2017-09-13T20:39:33.925Z,94870.61
2017-09-13T20:42:01.125Z,94873.07
2017-09-13T20:44:27.398Z,94885.25
2017-09-13T20:46:53.657Z,94875.95
2017-09-13T20:49:20.182Z,94867.84
2017-09-13T20:51:46.524Z,94879.63
2017-09-13T20:54:12.816Z,94869.35
2017-09-13T20:56:39.094Z,94871.90
2017-09-13T20:59:05.452Z,94870.49
2017-09-13T21:01:32.462Z,94872.09
2017-09-13T21:04:01.046Z,94861.41
2017-09-13T21:06:27.401Z,94865.00
2017-09-13T21:08:53.741Z,94854.53
2017-09-13T21:11:20.112Z,94860.14
2017-09-13T21:13:47.813Z,94842.75
2017-09-13T21:16:14.165Z,94855.66
2017-09-13T21:18:40.393Z,94840.63
2017-09-13T21:21:07.148Z,94851.70
2017-09-13T21:23:34.277Z,94855.55
2017-09-13T21:26:01.098Z,94853.52
2017-09-13T21:28:28.412Z,94851.11
2017-09-13T21:30:55.537Z,94849.36
2017-09-13T21:33:25.359Z,94849.26
2017-09-13T21:35:53.261Z,94845.83
2017-09-13T21:38:19.454Z,94851.00
2017-09-13T21:40:46.100Z,94842.20
2017-09-13T21:43:14.205Z,94850.28
2017-09-13T21:45:41.591Z,94847.42
2017-09-13T21:48:08.249Z,94853.14
2017-09-13T21:50:36.285Z,94838.00
2017-09-13T21:53:03.538Z,94834.85
2017-09-13T21:55:34.875Z,94836.91
2017-09-13T21:58:01.541Z,94844.22
2017-09-13T22:00:28.106Z,94828.95
2017-09-13T22:02:55.120Z,94823.16
2017-09-13T22:05:21.810Z,94823.31
2017-09-13T22:07:48.142Z,94823.30
2017-09-13T22:10:14.711Z,94816.52
2017-09-13T22:12:41.105Z,94816.53
2017-09-13T22:15:07.385Z,94810.92
2017-09-13T22:17:34.478Z,94815.88
2017-09-13T22:20:01.147Z,94812.23
2017-09-13T22:22:27.707Z,94802.66
2017-09-13T22:24:54.898Z,94800.49
2017-09-13T22:27:21.359Z,94788.52
2017-09-13T22:29:47.593Z,94797.17
2017-09-13T22:32:13.831Z,94785.92
2017-09-13T22:34:40.090Z,94787.02
2017-09-13T22:37:06.919Z,94780.11
2017-09-13T22:39:34.054Z,94778.60
2017-09-13T22:42:00.386Z,94777.59
2017-09-13T22:44:26.613Z,94774.92
2017-09-13T22:46:52.939Z,94775.50
2017-09-13T22:49:19.899Z,94770.97
2017-09-13T22:51:46.262Z,94766.63
2017-09-13T22:54:13.405Z,94761.31
2017-09-13T22:56:40.266Z,94764.10
2017-09-13T22:59:07.681Z,94760.95
2017-09-13T23:01:34.079Z,94754.86
2017-09-13T23:04:00.399Z,94754.43
2017-09-13T23:06:26.641Z,94750.78
2017-09-13T23:08:52.858Z,94747.41
2017-09-13T23:11:19.100Z,94743.70
2017-09-13T23:13:45.417Z,94752.16
2017-09-13T23:16:11.694Z,94743.36
2017-09-13T23:18:38.097Z,94747.66
2017-09-13T23:21:04.349Z,94744.66
2017-09-13T23:23:30.598Z,94736.72
2017-09-13T23:25:56.830Z,94739.91
2017-09-13T23:28:23.133Z,94739.72
2017-09-13T23:30:49.770Z,94735.77
2017-09-13T23:33:16.063Z,94732.30
2017-09-13T23:35:42.378Z,94736.27
2017-09-13T23:38:08.578Z,94721.50
2017-09-13T23:40:34.805Z,94725.29
2017-09-13T23:43:01.790Z,94729.13
2017-09-13T23:45:28.138Z,94723.23
2017-09-13T23:47:54.466Z,94725.41
2017-09-13T23:50:20.691Z,94724.02
2017-09-13T23:52:46.926Z,94713.93
2017-09-13T23:55:13.219Z,94702.70
2017-09-13T23:57:40.225Z,94719.45
